FW4291 Weather Reports


Display with metric or nautical units.
time (UTC)temp
F
wind
direction
speed
MPH
gust
MPH
rain 1hr
in
rain 24hr
in
rain mn
in
humidity
%
barometer
mb
20191115180046 73 202 1.0 4.0 0.00 0.00 0.00 31 1014.1
20191115175046 74 202 2.0 4.0 0.00 0.00 0.00 29
20191115174016 74 0.0 4.0 0.00 0.00 0.00 29 1014.1
20191115173118 75 180 1.0 4.0 0.00 0.00 0.00 27 1014.1
20191115172135 75 180 1.0 4.0 0.00 0.00 0.00 25
20191115171035 76 180 1.0 4.0 0.00 0.00 0.00 25 1013.0
20191115170024 76 0.0 4.0 0.00 0.00 0.00 24 1014.1
20191115165059 77 0.0 4.0 0.00 0.00 0.00 23
20191115164100 77 0.0 4.0 0.00 0.00 0.00 22 1013.0
20191115163030 78 202 2.0 4.0 0.00 0.00 0.00 21 1013.0
20191115162016 79 157 1.0 4.0 0.00 0.00 0.00 20
20191115161139 79 157 1.0 4.0 0.00 0.00 0.00 17 1013.0
20191115160133 80 202 4.0 4.0 0.00 0.00 0.00 11 1013.0
20191115155058 80 202 3.0 4.0 0.00 0.00 0.00 12
20191115154118 81 192 4.0 5.0 0.00 0.00 0.00 11 1013.0
20191115153019 82 183 3.0 4.0 0.00 0.00 0.00 13 1013.0
20191115152053 82 202 3.0 4.0 0.00 0.00 0.00 15
20191115151017 83 202 4.0 6.0 0.00 0.00 0.00 16 1013.0
20191115150051 83 167 3.0 4.0 0.00 0.00 0.00 19 1013.0
20191115145051 83 213 3.0 4.0 0.00 0.00 0.00 19
20191115144031 84 192 4.0 4.0 0.00 0.00 0.00 19 1013.0
20191115143121 84 243 4.0 4.0 0.00 0.00 0.00 19 1013.0
20191115142049 84 221 4.0 6.0 0.00 0.00 0.00 20
20191115141041 85 214 3.0 4.0 0.00 0.00 0.00 21 1013.0
20191115140021 86 104 3.0 4.0 0.00 0.00 0.00 22 1013.0
20191115135040 86 146 4.0 6.0 0.00 0.00 0.00 22
20191115134024 86 141 4.0 5.0 0.00 0.00 0.00 22 1013.0
20191115133110 86 292 2.0 2.0 0.00 0.00 0.00 22 1013.0
20191115132033 85 166 3.0 4.0 0.00 0.00 0.00 22
20191115131102 86 239 2.0 4.0 0.00 0.00 0.00 23 1013.0
20191115130026 85 255 3.0 6.0 0.00 0.00 0.00 23 1013.0
20191115125059 84 194 4.0 5.0 0.00 0.00 0.00 23
20191115124020 85 208 3.0 4.0 0.00 0.00 0.00 23 1013.0
20191115123039 85 22 1.0 4.0 0.00 0.00 0.00 22 1013.0
20191115122034 84 203 4.0 11.0 0.00 0.00 0.00 23
20191115121058 84 183 1.0 4.0 0.00 0.00 0.00 24 1013.0
20191115120018 83 157 5.0 5.0 0.00 0.00 0.00 23 1014.1
20191115115058 83 185 3.0 4.0 0.00 0.00 0.00 23
20191115114138 83 247 5.0 7.0 0.00 0.00 0.00 23 1014.1
20191115113020 0 247 4.0 6.0 0.00 0.00 0.00 1014.1
20191115112059 83 291 3.0 4.0 0.00 0.00 0.00 27
20191115111045 82 209 3.0 4.0 0.00 0.00 0.00 27 1015.3
20191115110018 83 173 4.0 5.0 0.00 0.00 0.00 28 1015.3
20191115105018 82 236 3.0 5.0 0.00 0.00 0.00 27
20191115104049 82 195 3.0 5.0 0.00 0.00 0.00 28 1014.1
20191115103109 82 214 4.0 4.0 0.00 0.00 0.00 29 1015.3
20191115102033 81 256 4.0 7.0 0.00 0.00 0.00 30
20191115101120 81 181 3.0 4.0 0.00 0.00 0.00 30 1015.3
20191115100032 81 169 5.0 5.0 0.00 0.00 0.00 30 1015.3
20191115095031 80 193 4.0 6.0 0.00 0.00 0.00 30
20191115094018 80 190 4.0 7.0 0.00 0.00 0.00 31 1015.3
20191115093105 80 157 4.0 5.0 0.00 0.00 0.00 31 1015.3
20191115092032 79 189 4.0 6.0 0.00 0.00 0.00 31
20191115091110 79 292 4.0 6.0 0.00 0.00 0.00 31 1016.4
20191115090057 78 202 3.0 5.0 0.00 0.00 0.00 31 1016.4
20191115085100 78 180 4.0 6.0 0.00 0.00 0.00 32
20191115084017 78 235 5.0 6.0 0.00 0.00 0.00 33 1016.4
20191115083100 77 175 4.0 5.0 0.00 0.00 0.00 34 1015.3
20191115082031 77 103 2.0 4.0 0.00 0.00 0.00 36
20191115081048 76 173 2.0 4.0 0.00 0.00 0.00 37 1016.4
20191115080152 75 22 2.0 4.0 0.00 0.00 0.00 37 1016.4
20191115075023 74 136 3.0 4.0 0.00 0.00 0.00 39
20191115074040 74 121 2.0 4.0 0.00 0.00 0.00 41 1016.4
20191115073103 74 77 2.0 5.0 0.00 0.00 0.00 41 1016.4
20191115072019 73 40 2.0 4.0 0.00 0.00 0.00 42
20191115071032 72 135 2.0 4.0 0.00 0.00 0.00 42 1016.4
20191115070058 72 202 3.0 4.0 0.00 0.00 0.00 42 1016.4
20191115065100 71 67 1.0 4.0 0.00 0.04 0.00 43
20191115064021 70 112 3.0 4.0 0.00 0.04 0.00 44 1016.4
20191115063118 69 35 3.0 4.0 0.00 0.04 0.00 44 1017.6
20191115062059 69 93 2.0 4.0 0.00 0.04 0.00 44
20191115061034 68 135 3.0 4.0 0.00 0.04 0.00 44 1016.4
20191115060030 67 124 4.0 6.0 0.00 0.04 0.00 45 1016.4
20191115055059 67 112 2.0 4.0 0.00 0.04 0.00 45
20191115054021 66 157 2.0 4.0 0.00 0.04 0.00 46 1016.4
20191115053017 66 149 5.0 6.0 0.00 0.04 0.00 46 1016.4
20191115052059 65 99 2.0 4.0 0.00 0.04 0.00 47
20191115051051 64 157 2.0 5.0 0.00 0.04 0.00 47 1016.4
20191115050046 64 162 3.0 4.0 0.00 0.04 0.00 47 1016.4
20191115045025 63 135 2.0 4.0 0.00 0.04 0.00 47
20191115044021 63 169 2.0 4.0 0.00 0.04 0.00 47 1016.4
20191115043058 62 270 3.0 4.0 0.00 0.04 0.00 48 1016.4
20191115042101 62 157 2.0 4.0 0.00 0.04 0.00 49
20191115041054 62 0.0 4.0 0.00 0.04 0.00 49 1016.4
20191115040043 61 0.0 4.0 0.00 0.04 0.00 49
20191115035047 60 0.0 4.0 0.00 0.04 0.00 49
20191115034030 60 0.0 4.0 0.00 0.04 0.00 49 1016.4
20191115033041 59 0.0 4.0 0.00 0.04 0.00 50 1016.4
20191115032100 59 0.0 4.0 0.00 0.04 0.00 49
20191115031039 61 0.0 4.0 0.00 0.04 0.00 49 1016.4
20191115030039 61 167 3.0 4.0 0.00 0.04 0.00 49 1016.4
20191115025059 61 129 2.0 4.0 0.00 0.04 0.00 49
20191115024032 60 180 3.0 4.0 0.00 0.04 0.00 49 1015.3
20191115023016 60 0.0 4.0 0.00 0.04 0.00 49 1017.6
20191115022044 60 157 2.0 4.0 0.00 0.04 0.00 50
20191115021150 60 190 1.0 4.0 0.00 0.04 0.00 49 1016.4
20191115020119 60 157 2.0 4.0 0.00 0.04 0.00 50 1016.4
20191115015022 60 189 2.0 4.0 0.00 0.04 0.00 50
20191115014016 60 195 2.0 4.0 0.00 0.04 0.00 50 1015.3
20191115013032 61 180 1.0 4.0 0.00 0.04 0.00 50 1015.3
20191115012016 61 202 1.0 4.0 0.00 0.04 0.00 50
20191115011055 61 180 3.0 4.0 0.00 0.04 0.00 50 1015.3
20191115010142 61 214 4.0 6.0 0.00 0.04 0.00 50 1016.4
20191115005037 61 157 1.0 4.0 0.00 0.04 0.00 49
20191115004105 61 196 2.0 4.0 0.00 0.04 0.00 49 1016.4
20191115003029 61 200 2.0 4.0 0.00 0.04 0.00 49 1015.3
20191115002018 61 0.0 4.0 0.00 0.04 0.00 49
20191115001056 61 174 2.0 4.0 0.00 0.04 0.00 49 1015.3
20191115000052 62 180 2.0 4.0 0.00 0.04 0.00 49 1015.3
20191114235017 62 0.0 4.0 0.00 0.04 0.00 49
20191114234126 62 177 2.0 4.0 0.00 0.04 0.00 49 1015.3
20191114233104 62 187 2.0 4.0 0.00 0.04 0.00 49 1015.3
20191114232046 63 177 3.0 4.0 0.00 0.04 0.00 48
20191114231032 63 0.0 6.0 0.00 0.04 0.00 48 1016.4
20191114230016 63 187 2.0 4.0 0.00 0.04 0.00 48 1015.3
20191114225101 63 173 4.0 6.0 0.00 0.04 0.00 48
20191114224126 63 207 5.0 9.0 0.00 0.04 0.00 47 1016.4
20191114223050 63 177 4.0 4.0 0.00 0.04 0.00 47 1016.4
20191114222048 64 188 4.0 6.0 0.00 0.04 0.00 46
20191114221055 64 135 6.0 7.0 0.00 0.04 0.00 45 1016.4
20191114220025 64 133 8.0 11.0 0.00 0.04 0.00 45 1016.4
20191114215030 64 206 5.0 6.0 0.00 0.04 0.04 44
20191114214052 64 175 8.0 10.0 0.00 0.04 0.04 43 1016.4
20191114213018 65 149 8.0 10.0 0.00 0.04 0.04 43 1016.4
20191114212101 65 172 8.0 11.0 0.00 0.04 0.04 42
20191114211032 65 149 6.0 13.0 0.00 0.04 0.04 41 1016.4
20191114210109 66 191 6.0 8.0 0.00 0.04 0.04 40 1017.6
20191114205020 67 143 6.0 8.0 0.00 0.04 0.04 39
20191114204029 67 145 4.0 4.0 0.00 0.04 0.04 37 1016.4
20191114203023 68 103 5.0 8.0 0.00 0.04 0.04 36 1017.6
20191114202031 68 215 6.0 7.0 0.00 0.04 0.04 34
20191114201059 68 158 6.0 8.0 0.00 0.04 0.04 34 1016.4
20191114200112 69 189 5.0 5.0 0.00 0.04 0.04 33 1016.4
20191114195021 69 202 3.0 4.0 0.00 0.04 0.04 33 1015.3
20191114194018 69 157 2.0 4.0 0.00 0.04 0.04 33 1015.3
20191114193148 69 157 3.0 4.0 0.00 0.08 0.04 33 1016.4
20191114192049 70 202 2.0 4.0 0.00 0.13 0.04 33 1015.3
20191114191043 70 191 2.0 4.0 0.00 0.17 0.04 32 1015.3
20191114190134 71 180 1.0 4.0 0.00 0.21 0.04 32 1015.3
20191114185022 71 169 2.0 4.0 0.00 0.21 0.04 32 1015.3
20191114184102 71 178 2.0 4.0 0.00 0.25 0.04 31 1015.3
20191114183046 71 157 1.0 4.0 0.00 0.25 0.04 31 1015.3
20191114182017 72 180 1.0 4.0 0.00 0.25 0.04 28 1015.3
20191114181028 72 202 2.0 4.0 0.00 0.29 0.04 27 1015.3
20191114180149 72 202 2.0 4.0 0.00 0.29 0.04 27 1015.3